Terminal Aerodrome Forecast
Issued by NWS Bismarck, ND

Home | Current Version | Previous Version | Text Only | Print | Product List | Glossary On
Versions: 1 2 3 4 5 6 7 8 9 10 11 12 13 14 15
000
FTUS43 KBIS 231100
TAFBIS
TAF
KBIS 231130Z 2312/2412 10019G27KT P6SM VCSH BKN090 OVC120
      TEMPO 2312/2313 11025G32KT -SHRA BKN080 OVC100
     FM231300 12025G34KT P6SM VCSH BKN040 OVC100
     FM231900 17015G22KT P6SM -SHRA OVC035
     FM232300 27014G19KT P6SM VCSH SCT020 OVC035
     FM240200 27010KT P6SM SCT080
     FM240600 26006KT P6SM SKC=

USA.gov is the U.S. government's official web portal to all federal, state and local government web resources and services.